Аэропорт: Национальный аэропорт Минск. Минск

ICAO: UMMS

METAR:
2018/07/16 19:30
UMMS 161930Z 01004MPS 9999 SCT044 BKN076 18/17 Q1006 R31/290055 NOSIG
METAR:
2018/07/16 17:21
TAF TAF UMMS 161700Z 1617/1718 03006G11MPS 5000 BR BKN015 
      TEMPO 1617/1619 08009G14MPS 1200 TSRA BKN003 BKN015CB 
      TEMPO 1619/1706 VRB02MPS 0500 TSRA FG BKN003 BKN015CB 
      TEMPO 1706/1718 06009G14MPS 1200 TSRA BKN003 BKN020CB